Time;durP1;ratioP1;P1;durP2;ratioP2;P2;SDS_P1;SDS_P2;PMS_P1;PMS_P2;Temp;Humidity;BMP_temperature;BMP_pressure;BME280_temperature;BME280_humidity;BME280_pressure;Samples;Min_cycle;Max_cycle;Signal;HPM_P1;HPM_P2
2023/07/20 00:01:28;;;;;;;3.70;2.33;;;;;;;25.92;36.95;98568.59;6946735;28;20203;-82
2023/07/20 00:04:49;;;;;;;5.17;2.47;;;;;;;25.58;36.33;98573.72;6947302;28;20290;-82
2023/07/20 00:08:12;;;;;;;4.73;2.27;;;;;;;25.62;36.39;98579.44;6946059;28;20355;-82
2023/07/20 00:11:37;;;;;;;3.27;2.27;;;;;;;25.84;35.87;98574.00;6955308;28;20207;-83
2023/07/20 00:14:58;;;;;;;3.17;2.07;;;;;;;25.69;36.47;98566.88;6951076;28;20269;-82
2023/07/20 00:18:21;;;;;;;5.13;2.20;;;;;;;25.25;36.41;98580.44;6952588;28;20318;-83
2023/07/20 00:21:42;;;;;;;5.13;2.70;;;;;;;25.54;36.30;98564.41;6966296;28;20572;-82
2023/07/20 00:25:06;;;;;;;6.20;2.63;;;;;;;25.14;36.93;98490.66;6974017;28;20804;-82
2023/07/20 00:28:28;;;;;;;3.27;2.20;;;;;;;24.96;37.10;98485.25;6972972;28;20229;-82
2023/07/20 00:31:51;;;;;;;3.57;2.50;;;;;;;25.19;36.50;98474.00;6972306;28;20212;-82
2023/07/20 00:35:13;;;;;;;3.17;2.40;;;;;;;25.05;37.73;98578.03;6972906;28;20320;-82
2023/07/20 00:38:35;;;;;;;3.87;2.63;;;;;;;24.78;38.85;98571.66;6972636;28;20591;-82
2023/07/20 00:41:58;;;;;;;4.40;2.73;;;;;;;24.83;37.98;98572.38;6972815;28;20302;-82
2023/07/20 00:45:19;;;;;;;3.40;2.70;;;;;;;24.44;39.01;98582.94;6972897;28;20204;-84
2023/07/20 00:48:42;;;;;;;6.47;2.70;;;;;;;24.65;39.09;98577.94;6972249;28;20277;-82
2023/07/20 00:52:04;;;;;;;5.03;2.77;;;;;;;24.46;38.59;98575.19;6971561;28;20230;-83
2023/07/20 00:55:27;;;;;;;2.93;2.47;;;;;;;24.43;38.16;98539.94;6972090;28;20367;-82
2023/07/20 00:58:50;;;;;;;3.57;2.73;;;;;;;24.91;37.93;98573.63;6972084;28;20260;-82
2023/07/20 01:02:12;;;;;;;2.90;2.60;;;;;;;24.67;37.96;98587.53;6972116;28;20253;-83
2023/07/20 01:05:39;;;;;;;3.27;2.50;;;;;;;24.55;37.58;98600.13;6972471;28;20606;-82
2023/07/20 01:09:10;;;;;;;4.70;2.50;;;;;;;24.33;37.41;98572.34;6956532;28;20654;-82
2023/07/20 01:12:34;;;;;;;2.30;2.10;;;;;;;24.53;36.82;98589.38;6951815;28;20228;-82
2023/07/20 01:16:01;;;;;;;3.90;2.13;;;;;;;24.44;36.94;98571.91;6968775;28;20693;-83
2023/07/20 01:19:23;;;;;;;3.17;2.20;;;;;;;24.35;36.48;98575.63;6976788;28;20806;-82
2023/07/20 01:23:02;;;;;;;2.40;2.20;;;;;;;24.31;36.15;98582.88;6974654;28;20210;-82
2023/07/20 01:26:48;;;;;;;2.63;2.30;;;;;;;24.28;36.23;98584.28;6975236;28;20317;-83
2023/07/20 01:30:25;;;;;;;4.13;2.10;;;;;;;24.32;36.47;98593.59;6970962;28;20229;-82
2023/07/20 01:33:49;;;;;;;3.77;2.17;;;;;;;24.40;35.95;98589.31;6962970;28;20193;-82
2023/07/20 01:37:11;;;;;;;6.27;2.27;;;;;;;24.31;36.24;98582.88;6944816;28;20233;-82
2023/07/20 01:40:33;;;;;;;2.50;2.30;;;;;;;23.20;37.22;98483.59;6964801;28;20730;-83
2023/07/20 01:43:54;;;;;;;2.43;2.00;;;;;;;24.02;36.79;98587.69;6945447;28;20284;-82
2023/07/20 01:47:16;;;;;;;3.67;2.23;;;;;;;24.17;36.98;98593.81;6953681;28;20343;-82
2023/07/20 01:50:42;;;;;;;5.10;2.10;;;;;;;23.55;36.59;98486.69;6972508;28;20315;-82
2023/07/20 01:54:04;;;;;;;2.80;2.40;;;;;;;23.98;36.75;98570.97;6973075;28;20235;-82
2023/07/20 01:57:25;;;;;;;3.03;2.27;;;;;;;23.98;36.92;98581.13;6971828;28;20313;-82
2023/07/20 02:00:47;;;;;;;3.07;2.47;;;;;;;24.17;37.01;98590.22;6971623;28;20290;-82
2023/07/20 02:04:08;;;;;;;6.27;2.60;;;;;;;23.76;37.54;98597.38;6972247;28;20541;-82
2023/07/20 02:07:31;;;;;;;2.57;2.30;;;;;;;23.85;37.87;98601.13;6971282;28;20227;-82
2023/07/20 02:10:53;;;;;;;4.30;2.40;;;;;;;23.56;38.08;98600.38;6971926;28;20775;-82
2023/07/20 02:14:14;;;;;;;2.70;2.20;;;;;;;23.59;38.22;98600.63;6971783;28;20311;-83
2023/07/20 02:17:36;;;;;;;3.30;2.40;;;;;;;23.25;38.72;98599.09;6971117;28;20267;-82
2023/07/20 02:20:59;;;;;;;3.10;2.70;;;;;;;23.20;39.42;98591.69;6947948;28;20259;-82
2023/07/20 02:24:22;;;;;;;3.33;2.30;;;;;;;23.28;38.93;98590.25;6944326;28;20245;-82
2023/07/20 02:27:43;;;;;;;3.70;2.50;;;;;;;22.77;40.01;98598.16;6943352;28;20298;-82
2023/07/20 02:31:05;;;;;;;3.73;2.70;;;;;;;23.10;39.63;98558.78;6944142;28;20241;-82
2023/07/20 02:34:26;;;;;;;2.83;2.33;;;;;;;23.35;39.74;98599.78;6943524;28;20304;-83
2023/07/20 02:37:48;;;;;;;3.13;2.53;;;;;;;23.51;39.05;98593.00;6955677;28;20218;-82
2023/07/20 02:41:11;;;;;;;4.90;2.47;;;;;;;23.54;39.46;98595.16;6971808;28;20235;-83
2023/07/20 02:44:32;;;;;;;5.50;2.57;;;;;;;22.88;40.25;98577.69;6974450;28;20256;-83
2023/07/20 02:47:54;;;;;;;3.43;2.30;;;;;;;22.95;40.82;98605.69;6974321;28;20289;-83
2023/07/20 02:51:15;;;;;;;3.07;2.40;;;;;;;23.32;40.17;98610.56;6976851;28;20323;-83
2023/07/20 02:54:36;;;;;;;3.70;2.50;;;;;;;22.79;40.49;98568.47;6980121;28;20265;-83
2023/07/20 02:57:59;;;;;;;3.27;2.43;;;;;;;22.35;42.40;98613.56;6980344;28;20226;-83
2023/07/20 03:01:21;;;;;;;2.73;2.47;;;;;;;22.81;41.77;98617.63;6979927;28;20212;-83
2023/07/20 03:04:42;;;;;;;3.87;2.80;;;;;;;22.83;41.66;98609.94;6980302;28;20212;-83
2023/07/20 03:08:06;;;;;;;2.53;2.33;;;;;;;22.47;42.37;98614.06;6979825;28;20876;-83
2023/07/20 03:11:27;;;;;;;3.93;2.60;;;;;;;22.17;43.59;98614.22;6979674;28;20241;-83
2023/07/20 03:14:50;;;;;;;3.63;2.47;;;;;;;22.31;43.64;98618.81;6980193;28;20672;-83
2023/07/20 03:18:11;;;;;;;3.00;2.70;;;;;;;22.26;43.93;98627.09;6978945;28;20254;-83
2023/07/20 03:21:33;;;;;;;5.13;2.77;;;;;;;22.08;43.94;98622.25;6979454;28;20215;-83
2023/07/20 03:24:54;;;;;;;7.33;3.37;;;;;;;21.65;45.19;98617.50;6972040;28;20759;-83
2023/07/20 03:28:16;;;;;;;3.17;2.77;;;;;;;21.57;45.50;98618.06;6978817;28;20259;-83
2023/07/20 03:31:39;;;;;;;3.00;2.70;;;;;;;21.25;46.58;98614.88;6979399;28;20306;-83
2023/07/20 03:35:01;;;;;;;4.33;3.00;;;;;;;20.82;45.94;98502.28;6978759;28;20231;-83
2023/07/20 03:38:23;;;;;;;4.50;2.63;;;;;;;21.37;46.10;98626.34;6977928;28;20307;-83
2023/07/20 03:41:46;;;;;;;3.70;2.67;;;;;;;20.99;46.35;98545.88;6978962;28;20345;-83
2023/07/20 03:45:09;;;;;;;3.63;2.80;;;;;;;19.84;48.31;98519.28;6978848;28;20279;-83
2023/07/20 03:48:32;;;;;;;3.63;2.67;;;;;;;20.64;48.45;98637.09;6976248;28;20360;-83
2023/07/20 03:51:54;;;;;;;2.83;2.50;;;;;;;20.80;47.85;98646.97;6977992;28;20297;-82
2023/07/20 03:55:15;;;;;;;3.73;2.80;;;;;;;20.94;47.70;98641.81;6976540;28;20212;-83
2023/07/20 03:58:37;;;;;;;5.17;3.00;;;;;;;20.43;47.87;98579.84;6975492;28;20230;-83
2023/07/20 04:01:58;;;;;;;3.53;2.70;;;;;;;20.25;49.64;98652.41;6975046;28;20349;-82
2023/07/20 04:05:21;;;;;;;8.50;3.37;;;;;;;20.75;48.36;98646.16;6973810;28;20223;-82
2023/07/20 04:08:43;;;;;;;3.03;2.73;;;;;;;20.98;47.61;98654.66;6974279;28;20365;-81
2023/07/20 04:12:05;;;;;;;5.07;3.07;;;;;;;21.06;47.71;98643.16;6973966;28;20256;-81
2023/07/20 04:15:26;;;;;;;4.10;3.03;;;;;;;21.02;47.56;98642.06;6974245;28;20266;-82
2023/07/20 04:18:49;;;;;;;5.17;3.00;;;;;;;20.99;47.89;98650.84;6972429;28;20324;-82
2023/07/20 04:22:15;;;;;;;6.17;2.93;;;;;;;20.68;48.25;98649.16;6946698;28;20599;-81
2023/07/20 04:25:39;;;;;;;4.37;3.10;;;;;;;20.39;49.22;98659.00;6946568;28;20676;-81
2023/07/20 04:29:01;;;;;;;4.40;2.73;;;;;;;20.82;48.32;98654.94;6946862;28;20230;-83
2023/07/20 04:32:22;;;;;;;3.27;2.73;;;;;;;20.61;48.96;98662.31;6968262;28;20214;-82
2023/07/20 04:35:49;;;;;;;4.70;2.63;;;;;;;21.06;47.24;98636.84;6972978;28;20374;-82
2023/07/20 04:39:13;;;;;;;3.63;2.90;;;;;;;21.17;47.82;98653.84;6975517;28;20365;-86
2023/07/20 04:42:34;;;;;;;3.40;3.07;;;;;;;21.27;48.08;98645.59;6967111;28;20207;-81
2023/07/20 04:45:56;;;;;;;4.77;2.97;;;;;;;20.86;48.10;98656.03;6964930;28;20210;-81
2023/07/20 04:49:17;;;;;;;5.00;3.07;;;;;;;21.23;47.42;98655.47;6960528;28;20284;-81
2023/07/20 04:52:39;;;;;;;3.67;3.00;;;;;;;20.78;47.91;98658.22;6986649;28;20209;-81
2023/07/20 04:56:01;;;;;;;3.43;2.93;;;;;;;21.27;47.94;98654.94;6969084;28;20257;-84
2023/07/20 04:59:23;;;;;;;3.23;2.93;;;;;;;21.54;47.43;98656.22;6960226;28;20237;-80
2023/07/20 05:02:44;;;;;;;8.53;2.90;;;;;;;22.35;45.13;98646.53;6951163;28;20605;-82
2023/07/20 05:06:06;;;;;;;2.90;2.60;;;;;;;22.62;45.08;98657.91;6974973;28;20227;-83
2023/07/20 05:09:27;;;;;;;3.63;2.80;;;;;;;22.75;43.68;98646.28;6976780;28;20279;-83
2023/07/20 05:12:50;;;;;;;3.03;2.73;;;;;;;23.24;43.72;98660.75;6982304;28;20337;-82
2023/07/20 05:16:12;;;;;;;4.03;2.93;;;;;;;22.61;44.21;98639.78;6982597;28;20297;-82
2023/07/20 05:19:33;;;;;;;3.10;2.70;;;;;;;23.33;42.85;98654.31;6983260;28;20303;-82
2023/07/20 05:22:55;;;;;;;3.17;2.70;;;;;;;23.44;43.52;98657.78;7011216;28;20217;-81
2023/07/20 05:26:16;;;;;;;3.47;2.90;;;;;;;23.14;43.03;98652.53;6955409;28;20296;-81
2023/07/20 05:29:44;;;;;;;2.97;2.50;;;;;;;23.73;43.04;98653.84;6956627;28;20310;-82
2023/07/20 05:33:06;;;;;;;2.93;2.63;;;;;;;24.94;40.21;98653.00;6979093;28;20185;-84
2023/07/20 05:36:27;;;;;;;6.13;3.00;;;;;;;24.58;41.63;98652.75;7003583;28;20275;-83
2023/07/20 05:39:49;;;;;;;4.07;2.83;;;;;;;24.07;42.71;98654.56;7019668;28;20249;-82
2023/07/20 05:43:11;;;;;;;5.37;3.10;;;;;;;24.38;42.07;98657.72;7006663;28;20699;-83
2023/07/20 05:46:34;;;;;;;3.43;2.97;;;;;;;24.59;41.54;98656.34;6998321;28;20206;-80
2023/07/20 05:49:55;;;;;;;5.03;2.90;;;;;;;25.17;40.52;98633.56;7000511;28;20228;-80
2023/07/20 05:53:17;;;;;;;4.43;2.67;;;;;;;26.42;36.07;98644.84;7001470;28;20845;-82
2023/07/20 05:56:38;;;;;;;2.67;2.00;;;;;;;26.43;36.71;98651.22;7000093;28;20237;-82
2023/07/20 06:00:00;;;;;;;4.67;3.00;;;;;;;26.62;35.67;98655.50;7001471;28;20715;-83
2023/07/20 06:03:23;;;;;;;3.20;2.53;;;;;;;26.95;35.70;98642.25;6999953;28;20298;-83
2023/07/20 06:06:44;;;;;;;4.83;2.70;;;;;;;26.94;35.94;98658.00;6999740;28;20550;-81
2023/07/20 06:10:07;;;;;;;2.47;2.23;;;;;;;26.98;35.39;98660.97;7003200;28;20245;-83
2023/07/20 06:13:28;;;;;;;12.40;3.07;;;;;;;26.66;36.16;98650.94;7002930;28;20206;-82
2023/07/20 06:16:50;;;;;;;5.10;2.50;;;;;;;27.08;35.56;98661.53;7003176;28;20233;-81
2023/07/20 06:20:13;;;;;;;5.30;2.70;;;;;;;26.34;35.64;98639.25;6986858;28;20767;-83
2023/07/20 06:23:34;;;;;;;4.30;2.57;;;;;;;25.87;36.95;98656.25;6944862;28;20247;-83
2023/07/20 06:26:56;;;;;;;3.23;2.73;;;;;;;25.38;37.80;98659.72;6943623;28;20290;-83
2023/07/20 06:30:18;;;;;;;2.80;2.53;;;;;;;25.19;38.05;98645.09;6965418;28;20272;-83
2023/07/20 06:33:39;;;;;;;4.20;2.53;;;;;;;25.51;37.45;98661.66;6972338;28;20214;-82
2023/07/20 06:37:03;;;;;;;3.60;2.60;;;;;;;26.40;35.96;98649.88;6971966;28;20369;-80
2023/07/20 06:40:24;;;;;;;5.47;2.83;;;;;;;26.39;35.77;98664.84;6974625;28;20736;-82
2023/07/20 06:43:46;;;;;;;3.37;2.60;;;;;;;26.67;35.43;98652.59;6975312;28;20191;-80
2023/07/20 06:47:07;;;;;;;3.97;2.60;;;;;;;26.90;34.91;98650.66;6977295;28;20299;-80
2023/07/20 06:50:29;;;;;;;4.27;2.50;;;;;;;26.82;34.76;98610.72;6975754;28;20239;-81
2023/07/20 06:53:52;;;;;;;4.03;2.50;;;;;;;27.44;34.60;98648.44;6974721;28;20209;-81
2023/07/20 06:57:13;;;;;;;3.87;2.50;;;;;;;27.65;33.58;98648.72;6960518;28;20354;-80
2023/07/20 07:00:35;;;;;;;3.87;2.40;;;;;;;26.88;35.62;98653.75;6951892;28;20319;-83
2023/07/20 07:03:56;;;;;;;5.27;2.50;;;;;;;26.61;35.60;98637.22;6972450;28;20263;-80
2023/07/20 07:07:18;;;;;;;5.27;2.37;;;;;;;27.56;33.73;98640.38;6970877;28;20301;-80
2023/07/20 07:10:40;;;;;;;4.60;2.60;;;;;;;26.78;35.68;98653.19;6973294;28;20372;-80
2023/07/20 07:14:02;;;;;;;3.63;2.33;;;;;;;26.97;35.09;98643.56;6975510;28;20297;-81
2023/07/20 07:17:23;;;;;;;3.77;2.50;;;;;;;27.20;35.09;98642.41;6975739;28;20560;-80
2023/07/20 07:20:51;;;;;;;3.57;2.07;;;;;;;27.78;34.15;98643.06;6977282;28;20249;-80
2023/07/20 07:24:13;;;;;;;4.70;2.70;;;;;;;26.27;35.51;98595.44;6977372;28;20652;-81
2023/07/20 07:27:38;;;;;;;3.57;2.33;;;;;;;27.20;34.80;98631.34;6977151;28;20341;-85
2023/07/20 07:30:59;;;;;;;7.10;2.70;;;;;;;27.23;34.65;98635.44;6976568;28;20229;-81
2023/07/20 07:34:21;;;;;;;4.17;2.50;;;;;;;27.80;34.05;98635.28;6962645;28;20338;-80
2023/07/20 07:37:42;;;;;;;4.40;2.30;;;;;;;28.77;32.64;98632.84;6959316;28;20748;-81
2023/07/20 07:41:04;;;;;;;2.97;2.67;;;;;;;28.33;32.42;98623.97;6973632;28;20297;-80
2023/07/20 07:44:27;;;;;;;4.50;2.43;;;;;;;28.88;32.91;98622.22;6963045;28;20243;-81
2023/07/20 07:47:48;;;;;;;2.93;2.37;;;;;;;29.45;31.35;98623.59;6952419;28;20799;-84
2023/07/20 07:51:10;;;;;;;4.17;2.17;;;;;;;29.29;31.29;98576.09;6951671;28;20316;-81
2023/07/20 07:54:31;;;;;;;3.63;2.23;;;;;;;29.53;31.06;98617.22;6951173;28;20212;-82
2023/07/20 07:57:53;;;;;;;3.10;2.17;;;;;;;27.58;33.50;98549.44;6973885;28;20608;-82
2023/07/20 08:01:16;;;;;;;5.43;2.70;;;;;;;27.84;34.29;98624.38;6975274;28;20303;-80
2023/07/20 08:04:39;;;;;;;6.37;2.50;;;;;;;27.76;33.92;98637.00;6956076;28;20206;-81
2023/07/20 08:08:00;;;;;;;3.67;2.50;;;;;;;27.54;34.16;98626.00;6963186;28;20287;-83
2023/07/20 08:11:21;;;;;;;4.37;2.20;;;;;;;27.80;34.06;98623.38;6977630;28;20345;-82
2023/07/20 08:14:43;;;;;;;2.87;2.10;;;;;;;27.99;33.96;98621.97;6962794;28;20241;-82
2023/07/20 08:18:07;;;;;;;5.93;2.50;;;;;;;28.11;33.45;98621.31;6961567;28;20682;-85
2023/07/20 08:21:29;;;;;;;3.80;2.30;;;;;;;27.51;34.17;98634.13;6951314;28;20203;-82
2023/07/20 08:24:50;;;;;;;6.83;2.70;;;;;;;27.85;33.77;98626.00;6947513;28;20281;-82
2023/07/20 08:28:12;;;;;;;5.10;2.50;;;;;;;28.07;33.39;98621.16;6964638;28;20279;-82
2023/07/20 08:31:33;;;;;;;4.07;2.27;;;;;;;27.85;33.78;98615.69;6963933;28;20292;-82
2023/07/20 08:34:56;;;;;;;5.83;2.57;;;;;;;27.37;34.55;98620.38;6948795;28;20297;-83
2023/07/20 08:38:18;;;;;;;4.03;2.40;;;;;;;27.53;34.69;98621.59;6948765;28;20240;-86
2023/07/20 08:41:40;;;;;;;3.00;2.27;;;;;;;28.28;32.06;98613.03;6957734;28;20745;-82
2023/07/20 08:45:01;;;;;;;4.03;2.30;;;;;;;28.57;32.09;98621.56;6957986;28;20207;-82
2023/07/20 08:48:23;;;;;;;5.10;2.73;;;;;;;28.57;31.51;98616.88;6962536;28;20222;-81
2023/07/20 08:51:47;;;;;;;4.47;2.50;;;;;;;28.07;32.62;98615.59;6973620;28;20281;-81
2023/07/20 08:55:09;;;;;;;5.30;2.10;;;;;;;27.61;33.02;98587.56;6970277;28;20224;-81
2023/07/20 08:58:31;;;;;;;3.73;2.40;;;;;;;27.45;32.91;98622.38;6959916;28;20229;-81
2023/07/20 09:01:54;;;;;;;4.07;2.60;;;;;;;27.27;33.68;98611.53;6973865;28;20296;-82
2023/07/20 09:05:15;;;;;;;3.10;2.17;;;;;;;26.94;34.35;98622.03;6973984;28;20223;-80
2023/07/20 09:08:40;;;;;;;5.73;2.57;;;;;;;26.63;34.89;98623.09;6964148;28;20761;-80
2023/07/20 09:12:01;;;;;;;3.40;2.43;;;;;;;26.89;35.36;98610.28;6972434;28;20233;-79
2023/07/20 09:15:23;;;;;;;5.10;2.20;;;;;;;27.85;33.09;98590.75;6973184;28;20288;-80
2023/07/20 09:18:45;;;;;;;4.93;2.53;;;;;;;28.31;32.52;98613.19;6973394;28;20323;-80
2023/07/20 09:22:07;;;;;;;4.03;2.13;;;;;;;28.90;28.14;98550.53;6988671;28;20257;-80
2023/07/20 09:25:30;;;;;;;3.07;2.10;;;;;;;29.80;27.79;98600.94;6985685;28;20212;-80
2023/07/20 09:28:54;;;;;;;2.80;2.07;;;;;;;29.13;28.75;98588.88;6972184;28;20225;-80
2023/07/20 09:32:19;;;;;;;4.37;1.97;;;;;;;28.13;29.97;98585.78;6973241;28;20205;-79
2023/07/20 09:35:40;;;;;;;4.53;2.40;;;;;;;28.10;30.46;98587.25;6973679;28;20610;-79
2023/07/20 09:39:03;;;;;;;2.77;2.33;;;;;;;29.09;29.51;98604.59;6952564;28;20254;-79
2023/07/20 09:42:27;;;;;;;2.53;2.00;;;;;;;28.99;30.28;98579.94;6967128;28;20343;-78
2023/07/20 09:45:48;;;;;;;3.70;2.20;;;;;;;28.37;29.40;98578.66;6967391;28;20207;-80
2023/07/20 09:49:10;;;;;;;6.33;2.10;;;;;;;28.91;29.52;98591.03;6973623;28;20232;-80
2023/07/20 09:52:32;;;;;;;4.33;2.17;;;;;;;28.28;30.54;98577.00;6974842;28;20213;-83
2023/07/20 09:55:54;;;;;;;3.07;2.03;;;;;;;27.40;31.52;98592.06;6977981;28;20220;-82
2023/07/20 09:59:17;;;;;;;3.67;2.30;;;;;;;28.44;30.79;98609.50;6973921;28;20232;-80
2023/07/20 10:02:43;;;;;;;2.47;2.27;;;;;;;28.69;30.01;98596.78;6975797;28;20203;-78
2023/07/20 10:06:08;;;;;;;2.57;2.13;;;;;;;28.37;30.34;98603.63;6973654;28;20209;-81
2023/07/20 10:09:30;;;;;;;4.30;2.20;;;;;;;28.30;30.59;98599.69;6976978;28;20229;-80
2023/07/20 10:12:52;;;;;;;3.80;2.13;;;;;;;28.80;29.45;98582.25;6974878;28;20203;-81
2023/07/20 10:16:19;;;;;;;3.00;2.10;;;;;;;28.32;28.24;98584.31;6971457;28;20212;-79
2023/07/20 10:19:45;;;;;;;3.13;1.97;;;;;;;28.30;28.83;98583.84;6972702;28;20254;-79
2023/07/20 10:23:07;;;;;;;2.30;1.93;;;;;;;29.26;27.58;98573.97;6974941;28;20207;-80
2023/07/20 10:26:29;;;;;;;3.50;2.00;;;;;;;30.36;26.64;98567.06;6949353;28;20785;-80
2023/07/20 10:29:52;;;;;;;3.37;1.90;;;;;;;30.85;26.45;98566.16;6956557;28;20226;-81
2023/07/20 10:33:15;;;;;;;2.00;1.60;;;;;;;31.44;25.59;98558.31;6970025;28;20203;-79
2023/07/20 10:36:45;;;;;;;3.30;2.00;;;;;;;30.81;25.47;98542.94;6963180;28;20297;-80
2023/07/20 10:40:28;;;;;;;4.70;2.03;;;;;;;30.56;25.42;98562.63;6970244;28;20222;-81
2023/07/20 10:43:50;;;;;;;2.60;1.73;;;;;;;29.01;27.14;98533.22;6961879;28;20209;-81
2023/07/20 10:47:13;;;;;;;3.63;2.27;;;;;;;28.88;27.96;98547.25;6982980;28;20281;-81
2023/07/20 10:50:36;;;;;;;3.30;1.90;;;;;;;29.13;26.93;98549.22;6965076;28;20306;-80
2023/07/20 10:53:59;;;;;;;2.10;1.90;;;;;;;29.51;26.40;98536.13;6958957;28;20288;-81
2023/07/20 10:57:31;;;;;;;2.30;1.53;;;;;;;29.32;26.79;98544.88;6968047;28;20220;-80
2023/07/20 11:00:59;;;;;;;6.03;1.80;;;;;;;29.64;26.20;98540.69;6961587;28;20228;-81
2023/07/20 11:04:20;;;;;;;2.37;2.10;;;;;;;29.85;25.68;98541.56;6965305;28;20567;-80
2023/07/20 11:07:43;;;;;;;1.70;1.60;;;;;;;29.77;25.42;98479.28;6964964;28;20223;-79
2023/07/20 11:11:24;;;;;;;2.53;1.80;;;;;;;29.54;25.66;98529.97;6963246;28;20357;-79
2023/07/20 11:14:56;;;;;;;2.27;1.70;;;;;;;28.77;26.54;98537.69;6964725;28;20252;-79
2023/07/20 11:18:17;;;;;;;2.80;1.70;;;;;;;28.74;26.52;98538.31;6976457;28;20211;-80
2023/07/20 11:21:41;;;;;;;5.43;1.80;;;;;;;28.78;26.23;98540.09;6963227;28;20353;-82
2023/07/20 11:25:05;;;;;;;1.97;1.87;;;;;;;30.12;24.62;98541.88;6980922;28;20219;-84
2023/07/20 11:28:26;;;;;;;1.97;1.50;;;;;;;29.41;24.95;98534.56;6978156;28;20252;-81
2023/07/20 11:31:48;;;;;;;4.97;3.60;;;;;;;29.29;25.65;98526.13;6978726;28;20579;-81
2023/07/20 11:35:14;;;;;;;4.43;4.03;;;;;;;29.12;25.63;98533.69;6966980;28;20697;-81
2023/07/20 11:38:35;;;;;;;3.27;1.73;;;;;;;29.05;25.38;98522.28;6956320;28;20383;-81
2023/07/20 11:41:58;;;;;;;1.80;1.70;;;;;;;30.26;24.56;98517.38;6977172;28;20322;-83
2023/07/20 11:45:20;;;;;;;2.63;2.00;;;;;;;30.11;23.51;98440.13;6981698;28;20260;-79
2023/07/20 11:48:42;;;;;;;2.93;1.60;;;;;;;30.48;23.58;98516.22;6979043;28;20720;-80
2023/07/20 11:52:04;;;;;;;1.80;1.70;;;;;;;29.86;23.63;98452.25;6976786;28;20300;-81
2023/07/20 11:55:26;;;;;;;2.50;2.00;;;;;;;30.49;23.45;98509.50;6974741;28;20317;-80
2023/07/20 11:58:50;;;;;;;5.37;1.70;;;;;;;30.75;22.99;98516.47;6972038;28;20228;-81
2023/07/20 12:02:12;;;;;;;2.43;1.47;;;;;;;31.54;22.35;98504.91;6973555;28;20339;-81
2023/07/20 12:05:34;;;;;;;2.37;1.70;;;;;;;31.18;23.37;98508.47;6974631;28;20299;-81
2023/07/20 12:08:57;;;;;;;2.43;1.70;;;;;;;30.78;22.77;98501.84;6973208;28;20630;-82
2023/07/20 12:12:19;;;;;;;2.40;1.73;;;;;;;30.38;22.94;98492.41;6973919;28;20214;-82
2023/07/20 12:15:44;;;;;;;1.87;1.60;;;;;;;29.66;23.15;98505.84;6968605;28;20203;-83
2023/07/20 12:19:07;;;;;;;2.20;1.73;;;;;;;30.14;22.70;98492.28;6957636;28;20232;-83
2023/07/20 12:22:28;;;;;;;2.40;1.73;;;;;;;29.80;24.07;98486.97;6961086;28;20228;-83
2023/07/20 12:25:51;;;;;;;1.63;1.50;;;;;;;30.36;22.25;98485.56;6957173;28;20355;-83
2023/07/20 12:29:13;;;;;;;2.33;1.60;;;;;;;31.17;21.90;98453.91;6968725;28;20220;-83
2023/07/20 12:32:36;;;;;;;2.83;1.97;;;;;;;30.72;22.19;98477.38;6973117;28;20301;-82
2023/07/20 12:35:58;;;;;;;2.40;1.50;;;;;;;29.43;23.09;98448.09;6975993;28;20312;-83
2023/07/20 12:39:20;;;;;;;2.43;1.50;;;;;;;31.23;21.65;98479.56;6973695;28;20234;-82
2023/07/20 12:42:41;;;;;;;1.53;1.43;;;;;;;31.04;20.75;98470.94;6958941;28;20636;-82
2023/07/20 12:46:03;;;;;;;1.70;1.50;;;;;;;31.90;20.23;98449.94;6968353;28;20210;-82
2023/07/20 12:49:26;;;;;;;1.90;1.70;;;;;;;31.41;21.49;98450.31;6983231;28;20226;-82
2023/07/20 12:52:48;;;;;;;1.70;1.60;;;;;;;31.03;21.64;98449.81;6970793;28;20295;-82
2023/07/20 12:56:09;;;;;;;1.87;1.57;;;;;;;30.48;21.54;98350.06;6967137;28;20194;-82
2023/07/20 12:59:33;;;;;;;4.33;1.87;;;;;;;31.40;21.93;98465.41;6955674;28;20344;-82
2023/07/20 13:02:54;;;;;;;2.73;1.50;;;;;;;30.38;21.48;98363.63;6963441;28;21082;-83
2023/07/20 13:06:17;;;;;;;2.73;1.80;;;;;;;31.34;21.46;98450.09;6973582;28;20212;-82
2023/07/20 13:09:39;;;;;;;1.70;1.60;;;;;;;31.04;21.71;98427.19;6972514;28;20275;-84
2023/07/20 13:13:01;;;;;;;2.63;1.87;;;;;;;31.69;21.70;98434.50;6962007;28;20237;-82
2023/07/20 13:16:22;;;;;;;4.33;1.53;;;;;;;31.72;20.87;98443.00;6953622;28;20200;-83
2023/07/20 13:19:44;;;;;;;3.20;1.70;;;;;;;32.14;20.75;98435.13;6948662;28;20264;-83
2023/07/20 13:23:07;;;;;;;2.63;1.80;;;;;;;31.35;21.29;98433.03;6950065;28;20392;-83
2023/07/20 13:26:29;;;;;;;3.47;1.90;;;;;;;31.40;20.94;98399.38;6971695;28;20231;-84
2023/07/20 13:29:50;;;;;;;2.50;1.73;;;;;;;31.49;20.91;98444.63;6973365;28;20784;-84
2023/07/20 13:33:12;;;;;;;1.67;1.40;;;;;;;31.27;20.60;98381.03;6972757;28;20206;-84
2023/07/20 13:36:33;;;;;;;2.60;1.50;;;;;;;32.20;20.25;98436.50;6971987;28;20255;-84
2023/07/20 13:39:56;;;;;;;2.70;1.70;;;;;;;31.58;20.60;98430.56;6970752;28;20236;-83
2023/07/20 13:43:18;;;;;;;1.67;1.57;;;;;;;31.29;21.11;98414.09;6972372;28;20332;-84
2023/07/20 13:46:39;;;;;;;3.00;1.70;;;;;;;30.98;21.57;98420.25;6970790;28;20208;-83
2023/07/20 13:50:01;;;;;;;1.73;1.33;;;;;;;30.36;21.74;98396.53;6972616;28;20369;-83
2023/07/20 13:53:23;;;;;;;1.63;1.53;;;;;;;30.63;21.75;98419.00;6971726;28;20350;-83
2023/07/20 13:56:46;;;;;;;1.77;1.63;;;;;;;30.26;21.88;98413.66;6969402;28;20206;-84
2023/07/20 14:00:10;;;;;;;4.17;1.57;;;;;;;30.36;21.97;98394.56;6971681;28;20225;-84
2023/07/20 14:03:32;;;;;;;3.30;1.90;;;;;;;30.75;21.39;98413.47;6973046;28;20673;-84
2023/07/20 14:06:53;;;;;;;2.73;1.57;;;;;;;31.06;21.39;98408.16;6970890;28;20231;-84
2023/07/20 14:10:15;;;;;;;2.73;1.80;;;;;;;31.72;20.27;98372.50;6971368;28;20297;-84
2023/07/20 14:13:38;;;;;;;3.63;2.10;;;;;;;31.62;20.86;98389.69;6969308;28;20277;-84
2023/07/20 14:17:00;;;;;;;4.40;1.80;;;;;;;31.50;20.88;98386.91;6945071;28;20228;-82
2023/07/20 14:20:21;;;;;;;3.00;1.60;;;;;;;30.70;21.38;98387.81;6969852;28;20294;-82
2023/07/20 14:23:43;;;;;;;2.13;1.57;;;;;;;30.97;20.75;98387.97;6970234;28;20206;-84
2023/07/20 14:27:05;;;;;;;2.23;1.33;;;;;;;31.52;20.20;98365.06;6973407;28;20220;-83
2023/07/20 14:30:28;;;;;;;2.77;1.77;;;;;;;31.71;20.76;98362.47;6987967;28;20244;-82
2023/07/20 14:33:50;;;;;;;2.70;1.80;;;;;;;30.18;20.42;98289.38;6947466;28;20283;-82
2023/07/20 14:37:11;;;;;;;2.50;1.60;;;;;;;30.63;21.75;98382.81;6970883;28;20268;-82
2023/07/20 14:40:33;;;;;;;4.00;1.63;;;;;;;30.63;21.52;98379.19;6968838;28;20721;-83
2023/07/20 14:43:55;;;;;;;2.13;1.47;;;;;;;30.32;21.66;98367.78;6971020;28;20635;-83
2023/07/20 14:47:18;;;;;;;3.37;1.60;;;;;;;30.45;21.79;98375.00;6986686;28;20237;-83
2023/07/20 14:50:39;;;;;;;1.77;1.60;;;;;;;31.42;20.58;98366.38;6969835;28;20232;-85
2023/07/20 14:54:01;;;;;;;2.50;1.73;;;;;;;31.74;20.39;98371.00;6961663;28;20959;-84
2023/07/20 14:57:23;;;;;;;3.10;1.63;;;;;;;31.32;20.26;98369.63;6955997;28;20201;-84
2023/07/20 15:00:45;;;;;;;1.70;1.60;;;;;;;31.24;19.97;98367.78;6964522;28;20238;-86
2023/07/20 15:04:08;;;;;;;3.47;2.03;;;;;;;31.62;19.81;98368.22;6971000;28;20212;-83
2023/07/20 15:07:29;;;;;;;1.77;1.60;;;;;;;30.72;21.04;98357.69;6945645;28;20614;-84
2023/07/20 15:10:51;;;;;;;3.00;1.70;;;;;;;30.95;20.54;98356.88;6954917;28;20343;-83
2023/07/20 15:14:12;;;;;;;2.07;1.90;;;;;;;30.82;20.87;98355.25;6973249;28;20299;-83
2023/07/20 15:17:36;;;;;;;3.37;1.60;;;;;;;30.37;21.08;98350.88;6971080;28;20282;-84
2023/07/20 15:20:58;;;;;;;1.50;1.40;;;;;;;30.42;20.62;98351.44;6971105;28;20289;-83
2023/07/20 15:24:20;;;;;;;1.83;1.70;;;;;;;31.14;20.30;98345.94;6972183;28;20296;-84
2023/07/20 15:27:43;;;;;;;2.27;1.60;;;;;;;30.62;20.67;98346.97;6970707;28;20240;-84
2023/07/20 15:31:05;;;;;;;1.90;1.70;;;;;;;30.45;20.50;98336.84;6972366;28;20235;-83
2023/07/20 15:34:27;;;;;;;2.20;1.67;;;;;;;30.29;21.06;98319.19;6973986;28;20321;-83
2023/07/20 15:37:50;;;;;;;2.23;1.67;;;;;;;30.75;20.17;98343.06;6973412;28;20248;-84
2023/07/20 15:41:12;;;;;;;1.90;1.80;;;;;;;31.16;20.12;98331.66;6974475;28;20252;-86
2023/07/20 15:44:33;;;;;;;3.90;1.80;;;;;;;30.99;19.99;98327.16;6975795;28;20200;-82
2023/07/20 15:47:55;;;;;;;3.17;1.57;;;;;;;31.45;20.16;98328.63;6977189;28;20796;-84
2023/07/20 15:51:16;;;;;;;2.30;1.77;;;;;;;31.65;19.46;98324.84;6973250;28;20300;-84
2023/07/20 15:54:39;;;;;;;1.80;1.57;;;;;;;31.34;19.85;98319.13;6973717;28;20270;-84